Time,TemperatureF,DewpointF,PressureIn,WindDirection,WindDirectionDegrees,WindSpeedMPH,WindSpeedGustMPH,Humidity,HourlyPrecipIn,Conditions,Clouds,dailyrainin,SoftwareType,DateUTC
2013-03-23 00:03:00,28.6,15.7,28.44,NNE,22,0.0,0.0,58,0.00,,---,0.00,VWS V14.01,2013-03-23 07:03:00,
2013-03-23 00:08:00,28.6,15.3,28.44,ENE,68,3.4,3.4,57,0.00,,---,0.00,VWS V14.01,2013-03-23 07:08:00,
2013-03-23 00:13:00,28.8,15.1,28.44,NE,45,2.2,3.1,56,0.00,,---,0.00,VWS V14.01,2013-03-23 07:13:00,
2013-03-23 00:18:00,28.6,14.9,28.44,North,0,1.6,3.4,56,0.00,,---,0.00,VWS V14.01,2013-03-23 07:18:00,
2013-03-23 00:23:00,28.6,14.9,28.44,NNE,22,2.2,2.7,56,0.00,,---,0.00,VWS V14.01,2013-03-23 07:23:00,
2013-03-23 00:28:00,28.4,15.1,28.44,NNE,22,0.0,0.9,57,0.00,,---,0.00,VWS V14.01,2013-03-23 07:28:00,
2013-03-23 00:33:00,28.6,14.5,28.44,ENE,68,2.5,2.5,55,0.00,,---,0.00,VWS V14.01,2013-03-23 07:33:00,
2013-03-23 00:38:00,28.6,14.5,28.44,NE,45,2.9,3.4,55,0.00,,---,0.00,VWS V14.01,2013-03-23 07:38:00,
2013-03-23 00:43:00,28.4,14.7,28.44,ENE,68,2.5,2.9,56,0.00,,---,0.00,VWS V14.01,2013-03-23 07:43:00,
2013-03-23 00:48:00,28.2,14.6,28.44,NE,45,2.2,3.4,56,0.00,,---,0.00,VWS V14.01,2013-03-23 07:48:00,
2013-03-23 00:53:00,28.2,14.1,28.44,NNE,22,0.0,4.3,55,0.00,,---,0.00,VWS V14.01,2013-03-23 07:53:00,
2013-03-23 00:58:00,28.2,14.1,28.44,NNE,22,2.5,6.5,55,0.00,,---,0.00,VWS V14.01,2013-03-23 07:58:00,
2013-03-23 01:03:00,28.0,14.0,28.44,NNE,22,3.8,3.8,55,0.00,,---,0.00,VWS V14.01,2013-03-23 08:03:00,
2013-03-23 01:08:00,27.7,13.6,28.44,East,90,1.6,1.6,55,0.00,,---,0.00,VWS V14.01,2013-03-23 08:08:00,
2013-03-23 01:13:00,27.3,13.7,28.47,South,180,0.0,1.1,56,0.00,,---,0.00,VWS V14.01,2013-03-23 08:13:00,
2013-03-23 01:18:00,27.0,13.8,28.47,NNE,22,3.1,3.1,57,0.00,,---,0.00,VWS V14.01,2013-03-23 08:18:00,
2013-03-23 01:23:00,27.3,13.7,28.47,NE,45,3.8,3.8,56,0.00,,---,0.00,VWS V14.01,2013-03-23 08:23:00,
2013-03-23 01:29:00,27.7,13.6,28.47,NNE,22,1.6,3.6,55,0.00,,---,0.00,VWS V14.01,2013-03-23 08:29:00,
2013-03-23 01:34:00,27.9,13.8,28.47,NNE,22,5.8,7.2,55,0.00,,---,0.00,VWS V14.01,2013-03-23 08:34:00,
2013-03-23 01:38:00,27.9,13.4,28.47,NE,45,4.0,4.9,54,0.00,,---,0.00,VWS V14.01,2013-03-23 08:38:00,
2013-03-23 01:44:00,27.9,13.4,28.47,ESE,112,6.0,7.6,54,0.00,,---,0.00,VWS V14.01,2013-03-23 08:44:00,
2013-03-23 01:49:00,27.7,13.2,28.47,NNW,338,0.0,1.1,54,0.00,,---,0.00,VWS V14.01,2013-03-23 08:49:00,
2013-03-23 01:54:00,27.5,13.1,28.47,ENE,68,1.6,1.6,54,0.00,,---,0.00,VWS V14.01,2013-03-23 08:54:00,
2013-03-23 01:59:00,27.1,13.1,28.47,ENE,68,1.6,2.5,55,0.00,,---,0.00,VWS V14.01,2013-03-23 08:59:00,
2013-03-23 02:04:00,27.0,13.0,28.47,NE,45,0.9,2.0,55,0.00,,---,0.00,VWS V14.01,2013-03-23 09:04:00,
2013-03-23 02:09:00,27.0,13.0,28.47,NNW,338,2.2,2.2,55,0.00,,---,0.00,VWS V14.01,2013-03-23 09:09:00,
2013-03-23 02:14:00,27.0,13.0,28.47,East,90,4.3,4.9,55,0.00,,---,0.00,VWS V14.01,2013-03-23 09:14:00,
2013-03-23 02:19:00,27.1,12.7,28.47,ENE,68,3.1,3.6,54,0.00,,---,0.00,VWS V14.01,2013-03-23 09:19:00,
2013-03-23 02:24:00,27.1,12.3,28.47,ENE,68,5.8,7.4,53,0.00,,---,0.00,VWS V14.01,2013-03-23 09:24:00,
2013-03-23 02:29:00,27.1,12.7,28.47,NE,45,2.7,2.7,54,0.00,,---,0.00,VWS V14.01,2013-03-23 09:29:00,
2013-03-23 02:34:00,26.8,12.8,28.47,WNW,292,0.0,0.0,55,0.00,,---,0.00,VWS V14.01,2013-03-23 09:34:00,
2013-03-23 02:39:00,27.0,12.6,28.47,North,0,2.2,4.5,54,0.00,,---,0.00,VWS V14.01,2013-03-23 09:39:00,
2013-03-23 02:44:00,27.0,12.1,28.47,ENE,68,3.4,4.5,53,0.00,,---,0.00,VWS V14.01,2013-03-23 09:44:00,
2013-03-23 02:49:00,27.1,12.3,28.47,NNE,22,2.7,7.4,53,0.00,,---,0.00,VWS V14.01,2013-03-23 09:49:00,
2013-03-23 02:54:00,27.0,12.6,28.47,NE,45,4.7,6.0,54,0.00,,---,0.00,VWS V14.01,2013-03-23 09:54:00,
2013-03-23 02:59:00,27.0,12.1,28.47,ENE,68,6.5,6.5,53,0.00,,---,0.00,VWS V14.01,2013-03-23 09:59:00,
2013-03-23 03:04:00,27.0,12.1,28.47,NNE,22,2.9,5.6,53,0.00,,---,0.00,VWS V14.01,2013-03-23 10:04:00,
2013-03-23 03:09:00,27.0,12.1,28.47,NE,45,3.1,5.4,53,0.00,,---,0.00,VWS V14.01,2013-03-23 10:09:00,
2013-03-23 03:14:00,26.8,12.0,28.47,NNE,22,2.0,3.6,53,0.00,,---,0.00,VWS V14.01,2013-03-23 10:14:00,
2013-03-23 03:19:00,26.8,12.0,28.47,NE,45,3.8,3.8,53,0.00,,---,0.00,VWS V14.01,2013-03-23 10:19:00,
2013-03-23 03:24:00,26.8,12.0,28.47,NE,45,3.8,6.5,53,0.00,,---,0.00,VWS V14.01,2013-03-23 10:24:00,
2013-03-23 03:29:00,26.8,12.0,28.47,NE,45,1.3,3.8,53,0.00,,---,0.00,VWS V14.01,2013-03-23 10:29:00,
2013-03-23 03:34:00,27.0,11.7,28.47,NE,45,7.4,8.5,52,0.00,,---,0.00,VWS V14.01,2013-03-23 10:34:00,
2013-03-23 03:39:00,27.0,11.7,28.47,ENE,68,6.3,7.6,52,0.00,,---,0.00,VWS V14.01,2013-03-23 10:39:00,
2013-03-23 03:44:00,27.0,11.7,28.47,NE,45,4.0,4.0,52,0.00,,---,0.00,VWS V14.01,2013-03-23 10:44:00,
2013-03-23 03:49:00,27.0,11.7,28.47,ENE,68,2.9,6.3,52,0.00,,---,0.00,VWS V14.01,2013-03-23 10:49:00,
2013-03-23 03:54:00,27.0,12.1,28.47,East,90,5.4,5.6,53,0.00,,---,0.00,VWS V14.01,2013-03-23 10:54:00,
2013-03-23 03:59:00,26.8,11.5,28.47,NE,45,8.5,8.5,52,0.00,,---,0.00,VWS V14.01,2013-03-23 10:59:00,
2013-03-23 04:04:00,26.8,11.5,28.47,NE,45,1.1,1.1,52,0.00,,---,0.00,VWS V14.01,2013-03-23 11:04:00,
2013-03-23 04:09:00,26.4,11.6,28.47,NNE,22,2.0,2.0,53,0.00,,---,0.00,VWS V14.01,2013-03-23 11:09:00,
2013-03-23 04:14:00,26.4,11.6,28.47,NNW,338,2.2,3.1,53,0.00,,---,0.00,VWS V14.01,2013-03-23 11:14:00,
2013-03-23 04:19:00,25.9,11.5,28.47,WSW,248,0.0,0.0,54,0.00,,---,0.00,VWS V14.01,2013-03-23 11:19:00,
2013-03-23 04:24:00,26.1,11.7,28.47,NNE,22,5.4,5.4,54,0.00,,---,0.00,VWS V14.01,2013-03-23 11:24:00,
2013-03-23 04:29:00,26.1,11.3,28.47,NNE,22,7.2,7.2,53,0.00,,---,0.00,VWS V14.01,2013-03-23 11:29:00,
2013-03-23 04:34:00,25.7,11.4,28.47,SSE,158,2.0,2.0,54,0.00,,---,0.00,VWS V14.01,2013-03-23 11:34:00,
2013-03-23 04:39:00,26.1,11.3,28.47,East,90,3.8,4.0,53,0.00,,---,0.00,VWS V14.01,2013-03-23 11:39:00,
2013-03-23 04:44:00,26.1,11.3,28.47,NNW,338,2.7,2.7,53,0.00,,---,0.00,VWS V14.01,2013-03-23 11:44:00,
2013-03-23 04:49:00,26.1,11.3,28.47,NE,45,2.5,3.1,53,0.00,,---,0.00,VWS V14.01,2013-03-23 11:49:00,
2013-03-23 04:54:00,26.1,11.3,28.47,NE,45,2.5,3.6,53,0.00,,---,0.00,VWS V14.01,2013-03-23 11:54:00,
2013-03-23 04:59:00,26.1,11.7,28.47,ENE,68,2.7,3.6,54,0.00,,---,0.00,VWS V14.01,2013-03-23 11:59:00,
2013-03-23 06:23:00,24.4,11.8,28.47,South,180,2.5,2.5,58,0.00,,---,0.00,VWS V14.01,2013-03-23 13:23:00,
2013-03-23 06:28:00,24.4,12.2,28.47,WSW,248,1.1,1.3,59,0.00,,---,0.00,VWS V14.01,2013-03-23 13:28:00,
2013-03-23 06:34:00,24.4,12.2,28.47,WSW,248,0.0,0.0,59,0.00,,---,0.00,VWS V14.01,2013-03-23 13:34:00,
2013-03-23 06:39:00,24.3,12.4,28.47,WSW,248,0.0,0.0,60,0.00,,---,0.00,VWS V14.01,2013-03-23 13:39:00,
2013-03-23 06:44:00,24.1,11.8,28.47,WSW,248,0.0,0.0,59,0.00,,---,0.00,VWS V14.01,2013-03-23 13:44:00,
2013-03-23 06:49:00,24.1,12.2,28.47,WSW,248,0.0,0.0,60,0.00,,---,0.00,VWS V14.01,2013-03-23 13:49:00,
2013-03-23 06:54:00,24.1,12.2,28.47,WSW,248,0.0,0.0,60,0.00,,---,0.00,VWS V14.01,2013-03-23 13:54:00,
2013-03-23 06:59:00,24.1,12.2,28.47,WSW,248,0.0,0.0,60,0.00,,---,0.00,VWS V14.01,2013-03-23 13:59:00,
2013-03-23 07:04:00,24.1,12.6,28.47,WSW,248,0.0,0.0,61,0.00,,---,0.00,VWS V14.01,2013-03-23 14:04:00,
2013-03-23 07:09:00,24.1,12.6,28.47,WSW,248,0.0,0.0,61,0.00,,---,0.00,VWS V14.01,2013-03-23 14:09:00,
2013-03-23 07:14:00,24.1,12.6,28.47,WSW,248,0.0,0.0,61,0.00,,---,0.00,VWS V14.01,2013-03-23 14:14:00,
2013-03-23 07:19:00,24.1,12.6,28.47,WSW,248,0.0,0.0,61,0.00,,---,0.00,VWS V14.01,2013-03-23 14:19:00,
2013-03-23 07:24:00,24.1,12.6,28.47,WSW,248,0.0,0.0,61,0.00,,---,0.00,VWS V14.01,2013-03-23 14:24:00,
2013-03-23 07:29:00,24.3,12.8,28.50,WSW,248,0.0,0.0,61,0.00,,---,0.00,VWS V14.01,2013-03-23 14:29:00,
2013-03-23 07:34:00,24.3,12.8,28.50,WSW,248,0.0,0.0,61,0.00,,---,0.00,VWS V14.01,2013-03-23 14:34:00,
2013-03-23 07:39:00,24.4,13.3,28.50,WSW,248,0.0,0.0,62,0.00,,---,0.00,VWS V14.01,2013-03-23 14:39:00,
2013-03-23 07:44:00,24.6,13.5,28.50,WSW,248,0.0,0.0,62,0.00,,---,0.00,VWS V14.01,2013-03-23 14:44:00,
2013-03-23 07:49:00,24.8,13.6,28.50,WSW,248,0.0,0.0,62,0.00,,---,0.00,VWS V14.01,2013-03-23 14:49:00,
2013-03-23 07:54:00,25.2,13.6,28.50,WSW,248,0.0,0.0,61,0.00,,---,0.00,VWS V14.01,2013-03-23 14:54:00,
2013-03-23 07:59:00,25.3,13.8,28.50,WSW,248,0.0,0.0,61,0.00,,---,0.00,VWS V14.01,2013-03-23 14:59:00,
2013-03-23 08:04:00,25.7,14.5,28.50,WSW,248,0.0,0.0,62,0.00,,---,0.00,VWS V14.01,2013-03-23 15:04:00,
2013-03-23 08:09:00,26.1,14.8,28.50,WSW,248,0.0,0.0,62,0.00,,---,0.00,VWS V14.01,2013-03-23 15:09:00,
2013-03-23 08:14:00,26.4,15.2,28.50,WSW,248,0.0,0.0,62,0.00,,---,0.00,VWS V14.01,2013-03-23 15:14:00,
2013-03-23 08:19:00,26.8,15.1,28.50,WSW,248,0.0,0.0,61,0.00,,---,0.00,VWS V14.01,2013-03-23 15:19:00,
2013-03-23 08:24:00,27.1,15.5,28.50,WSW,248,0.0,0.0,61,0.00,,---,0.00,VWS V14.01,2013-03-23 15:24:00,
2013-03-23 08:29:00,27.9,16.2,28.47,WSW,248,0.0,0.0,61,0.00,,---,0.00,VWS V14.01,2013-03-23 15:29:00,
2013-03-23 08:34:00,28.6,16.5,28.47,WSW,248,0.0,0.0,60,0.00,,---,0.00,VWS V14.01,2013-03-23 15:34:00,
2013-03-23 08:39:00,28.4,15.5,28.47,ESE,112,1.3,2.0,58,0.00,,---,0.00,VWS V14.01,2013-03-23 15:39:00,
2013-03-23 08:44:00,28.8,15.1,28.50,ESE,112,0.0,0.0,56,0.00,,---,0.00,VWS V14.01,2013-03-23 15:44:00,
2013-03-23 08:49:00,29.3,15.6,28.50,NNE,22,0.0,0.0,56,0.00,,---,0.00,VWS V14.01,2013-03-23 15:49:00,
2013-03-23 08:54:00,29.5,15.7,28.50,NNE,22,0.0,0.0,56,0.00,,---,0.00,VWS V14.01,2013-03-23 15:54:00,
2013-03-23 08:59:00,30.0,15.4,28.47,WSW,248,0.0,0.0,54,0.00,,---,0.00,VWS V14.01,2013-03-23 15:59:00,
2013-03-23 09:04:00,30.2,15.6,28.47,SW,225,0.0,0.0,54,0.00,,---,0.00,VWS V14.01,2013-03-23 16:04:00,
2013-03-23 09:09:00,30.4,15.3,28.47,SSE,158,0.0,1.3,53,0.00,,---,0.00,VWS V14.01,2013-03-23 16:09:00,
2013-03-23 09:14:00,30.6,15.5,28.50,SW,225,0.0,0.0,53,0.00,,---,0.00,VWS V14.01,2013-03-23 16:14:00,
2013-03-23 09:19:00,30.9,15.8,28.50,SW,225,0.0,0.0,53,0.00,,---,0.00,VWS V14.01,2013-03-23 16:19:00,
2013-03-23 09:24:00,31.3,15.7,28.50,ENE,68,1.6,2.0,52,0.00,,---,0.00,VWS V14.01,2013-03-23 16:24:00,
2013-03-23 09:29:00,31.6,15.1,28.47,NE,45,1.6,2.0,50,0.00,,---,0.00,VWS V14.01,2013-03-23 16:29:00,
2013-03-23 09:34:00,32.4,15.8,28.47,East,90,1.1,2.0,50,0.00,,---,0.00,VWS V14.01,2013-03-23 16:34:00,
2013-03-23 09:39:00,33.4,17.3,28.47,East,90,0.0,0.0,51,0.00,,---,0.00,VWS V14.01,2013-03-23 16:39:00,
2013-03-23 09:44:00,34.3,17.6,28.47,WSW,248,0.0,0.0,50,0.00,,---,0.00,VWS V14.01,2013-03-23 16:44:00,
2013-03-23 09:49:00,35.6,18.8,28.47,ENE,68,0.0,0.0,50,0.00,,---,0.00,VWS V14.01,2013-03-23 16:49:00,
2013-03-23 09:54:00,36.0,17.7,28.47,NNE,22,0.0,0.0,47,0.00,,---,0.00,VWS V14.01,2013-03-23 16:54:00,
2013-03-23 09:59:00,36.1,16.9,28.47,ESE,112,2.7,2.7,45,0.00,,---,0.00,VWS V14.01,2013-03-23 16:59:00,
2013-03-23 10:04:00,36.7,16.8,28.47,NNE,22,2.5,2.7,44,0.00,,---,0.00,VWS V14.01,2013-03-23 17:04:00,
2013-03-23 10:09:00,36.5,15.6,28.47,ENE,68,1.1,2.0,42,0.00,,---,0.00,VWS V14.01,2013-03-23 17:09:00,
2013-03-23 10:14:00,37.0,16.6,28.47,NE,45,0.0,0.0,43,0.00,,---,0.00,VWS V14.01,2013-03-23 17:14:00,
2013-03-23 10:19:00,37.0,16.1,28.47,ESE,112,1.3,2.0,42,0.00,,---,0.00,VWS V14.01,2013-03-23 17:19:00,
2013-03-23 10:24:00,37.4,15.9,28.47,ESE,112,2.5,2.5,41,0.00,,---,0.00,VWS V14.01,2013-03-23 17:24:00,
2013-03-23 10:29:00,38.1,17.1,28.47,East,90,1.6,1.6,42,0.00,,---,0.00,VWS V14.01,2013-03-23 17:29:00,
2013-03-23 10:34:00,38.5,16.8,28.47,ENE,68,1.6,2.5,41,0.00,,---,0.00,VWS V14.01,2013-03-23 17:34:00,
2013-03-23 10:39:00,39.2,16.9,28.47,NNE,22,1.1,2.0,40,0.00,,---,0.00,VWS V14.01,2013-03-23 17:39:00,
2013-03-23 10:44:00,39.9,17.6,28.47,East,90,2.0,2.0,40,0.00,,---,0.00,VWS V14.01,2013-03-23 17:44:00,
2013-03-23 10:49:00,40.5,17.5,28.47,WSW,248,2.0,2.0,39,0.00,,---,0.00,VWS V14.01,2013-03-23 17:49:00,
2013-03-23 10:54:00,40.8,17.8,28.47,ESE,112,1.6,1.6,39,0.00,,---,0.00,VWS V14.01,2013-03-23 17:54:00,
2013-03-23 10:59:00,42.3,18.5,28.47,ESE,112,2.5,2.9,38,0.00,,---,0.00,VWS V14.01,2013-03-23 17:59:00,
2013-03-23 11:04:00,45.3,21.2,28.47,ENE,68,1.1,2.5,38,0.00,,---,0.00,VWS V14.01,2013-03-23 18:04:00,
2013-03-23 11:09:00,46.2,20.8,28.47,ENE,68,3.8,3.8,36,0.00,,---,0.00,VWS V14.01,2013-03-23 18:09:00,
2013-03-23 11:14:00,46.9,21.4,28.47,ENE,68,0.9,1.3,36,0.00,,---,0.00,VWS V14.01,2013-03-23 18:14:00,
2013-03-23 11:19:00,47.5,20.5,28.47,NNE,22,3.6,3.8,34,0.00,,---,0.00,VWS V14.01,2013-03-23 18:19:00,
2013-03-23 11:25:00,48.4,20.6,28.47,NNE,22,3.4,5.8,33,0.00,,---,0.00,VWS V14.01,2013-03-23 18:25:00,
2013-03-23 11:30:00,48.7,19.5,28.47,ESE,112,4.0,4.0,31,0.00,,---,0.00,VWS V14.01,2013-03-23 18:30:00,
2013-03-23 11:35:00,48.7,17.9,28.47,ENE,68,2.7,6.3,29,0.00,,---,0.00,VWS V14.01,2013-03-23 18:35:00,
2013-03-23 11:40:00,47.8,17.1,28.47,East,90,3.4,4.3,29,0.00,,---,0.00,VWS V14.01,2013-03-23 18:40:00,
2013-03-23 11:45:00,47.1,16.5,28.44,North,0,2.5,2.9,29,0.00,,---,0.00,VWS V14.01,2013-03-23 18:45:00,
2013-03-23 11:50:00,46.6,16.0,28.44,ESE,112,3.6,4.3,29,0.00,,---,0.00,VWS V14.01,2013-03-23 18:50:00,
2013-03-23 11:55:00,46.4,15.9,28.44,East,90,3.8,4.0,29,0.00,,---,0.00,VWS V14.01,2013-03-23 18:55:00,
2013-03-23 12:00:00,45.9,15.4,28.44,NE,45,2.7,3.4,29,0.00,,---,0.00,VWS V14.01,2013-03-23 19:00:00,
2013-03-23 12:05:00,45.7,16.0,28.44,ENE,68,2.0,3.6,30,0.00,,---,0.00,VWS V14.01,2013-03-23 19:05:00,
2013-03-23 12:10:00,46.0,16.4,28.44,SE,135,3.1,4.0,30,0.00,,---,0.00,VWS V14.01,2013-03-23 19:10:00,
2013-03-23 12:15:00,46.8,17.7,28.44,ENE,68,3.8,3.8,31,0.00,,---,0.00,VWS V14.01,2013-03-23 19:15:00,
2013-03-23 12:20:00,47.1,17.3,28.44,ENE,68,3.1,3.1,30,0.00,,---,0.00,VWS V14.01,2013-03-23 19:20:00,
2013-03-23 12:25:00,47.8,17.1,28.44,NE,45,2.5,7.8,29,0.00,,---,0.00,VWS V14.01,2013-03-23 19:25:00,
2013-03-23 12:30:00,48.4,18.4,28.44,SE,135,2.5,2.9,30,0.00,,---,0.00,VWS V14.01,2013-03-23 19:30:00,
2013-03-23 12:35:00,49.1,18.2,28.44,NNE,22,3.4,3.6,29,0.00,,---,0.00,VWS V14.01,2013-03-23 19:35:00,
2013-03-23 12:40:00,48.6,18.5,28.44,SE,135,0.0,0.0,30,0.00,,---,0.00,VWS V14.01,2013-03-23 19:40:00,
2013-03-23 12:45:00,48.7,17.9,28.44,SSE,158,1.6,1.6,29,0.00,,---,0.00,VWS V14.01,2013-03-23 19:45:00,
2013-03-23 12:50:00,49.3,17.6,28.44,ENE,68,3.1,3.1,28,0.00,,---,0.00,VWS V14.01,2013-03-23 19:50:00,
2013-03-23 12:55:00,50.4,19.3,28.44,NNE,22,2.7,2.7,29,0.00,,---,0.00,VWS V14.01,2013-03-23 19:55:00,
2013-03-23 13:00:00,49.1,18.2,28.44,ESE,112,3.8,3.8,29,0.00,,---,0.00,VWS V14.01,2013-03-23 20:00:00,
2013-03-23 13:05:00,48.7,17.9,28.44,East,90,3.6,3.6,29,0.00,,---,0.00,VWS V14.01,2013-03-23 20:05:00,
2013-03-23 13:10:00,48.2,17.5,28.44,SSE,158,3.4,3.4,29,0.00,,---,0.00,VWS V14.01,2013-03-23 20:10:00,
2013-03-23 13:15:00,48.4,18.4,28.44,WSW,248,0.0,0.0,30,0.00,,---,0.00,VWS V14.01,2013-03-23 20:15:00,
2013-03-23 13:20:00,48.4,17.6,28.44,WNW,292,1.3,3.4,29,0.00,,---,0.00,VWS V14.01,2013-03-23 20:20:00,
2013-03-23 13:25:00,49.6,19.5,28.44,SW,225,2.0,2.5,30,0.00,,---,0.00,VWS V14.01,2013-03-23 20:25:00,
2013-03-23 13:30:00,49.6,18.7,28.41,NNW,338,1.1,2.7,29,0.00,,---,0.00,VWS V14.01,2013-03-23 20:30:00,
2013-03-23 13:35:00,49.6,18.7,28.41,ENE,68,0.0,0.0,29,0.00,,---,0.00,VWS V14.01,2013-03-23 20:35:00,
2013-03-23 13:40:00,49.8,18.9,28.41,East,90,3.1,3.1,29,0.00,,---,0.00,VWS V14.01,2013-03-23 20:40:00,
2013-03-23 13:45:00,50.4,18.5,28.41,NE,45,1.3,2.5,28,0.00,,---,0.00,VWS V14.01,2013-03-23 20:45:00,
2013-03-23 13:50:00,50.4,18.5,28.41,East,90,1.3,3.1,28,0.00,,---,0.00,VWS V14.01,2013-03-23 20:50:00,
2013-03-23 13:55:00,49.5,17.7,28.41,South,180,0.0,2.5,28,0.00,,---,0.00,VWS V14.01,2013-03-23 20:55:00,
2013-03-23 14:00:00,49.1,17.4,28.41,ESE,112,2.0,2.0,28,0.00,,---,0.00,VWS V14.01,2013-03-23 21:00:00,
2013-03-23 14:05:00,48.7,17.1,28.41,West,270,1.6,2.0,28,0.00,,---,0.00,VWS V14.01,2013-03-23 21:05:00,
2013-03-23 14:10:00,47.8,17.1,28.41,NE,45,0.0,2.7,29,0.00,,---,0.00,VWS V14.01,2013-03-23 21:10:00,
2013-03-23 14:15:00,46.9,16.4,28.41,East,90,1.1,2.0,29,0.00,,---,0.00,VWS V14.01,2013-03-23 21:15:00,
2013-03-23 14:21:00,47.5,16.8,28.41,WNW,292,0.0,0.9,29,0.00,,---,0.00,VWS V14.01,2013-03-23 21:21:00,
2013-03-23 14:26:00,46.9,16.4,28.41,NNE,22,2.5,2.9,29,0.00,,---,0.00,VWS V14.01,2013-03-23 21:26:00,
2013-03-23 14:31:00,46.2,16.5,28.41,SSW,202,0.0,0.0,30,0.00,,---,0.00,VWS V14.01,2013-03-23 21:31:00,
2013-03-23 14:36:00,45.3,16.5,28.41,WSW,248,1.1,2.0,31,0.00,,---,0.00,VWS V14.01,2013-03-23 21:36:00,
2013-03-23 14:41:00,45.9,17.7,28.41,SSW,202,0.0,1.6,32,0.00,,---,0.00,VWS V14.01,2013-03-23 21:41:00,
2013-03-23 14:46:00,47.5,18.4,28.41,West,270,2.0,2.2,31,0.00,,---,0.00,VWS V14.01,2013-03-23 21:46:00,
2013-03-23 14:51:00,47.1,17.3,28.41,SSW,202,0.0,1.6,30,0.00,,---,0.00,VWS V14.01,2013-03-23 21:51:00,
2013-03-23 14:56:00,46.4,17.4,28.41,WSW,248,2.0,2.0,31,0.00,,---,0.00,VWS V14.01,2013-03-23 21:56:00,
2013-03-23 15:01:00,45.1,17.1,28.41,WSW,248,0.0,1.3,32,0.00,,---,0.00,VWS V14.01,2013-03-23 22:01:00,
2013-03-23 15:06:00,43.9,18.7,28.41,WSW,248,1.6,2.0,36,0.00,,---,0.00,VWS V14.01,2013-03-23 22:06:00,
2013-03-23 15:11:00,43.3,20.6,28.41,WSW,248,2.0,2.0,40,0.00,,---,0.00,VWS V14.01,2013-03-23 22:11:00,
2013-03-23 15:16:00,43.5,20.8,28.41,WSW,248,0.0,0.0,40,0.00,,---,0.00,VWS V14.01,2013-03-23 22:16:00,
2013-03-23 15:21:00,43.0,20.3,28.41,WSW,248,0.0,0.0,40,0.00,,---,0.00,VWS V14.01,2013-03-23 22:21:00,
2013-03-23 15:26:00,42.6,21.1,28.41,WSW,248,0.0,0.0,42,0.00,,---,0.00,VWS V14.01,2013-03-23 22:26:00,
2013-03-23 15:31:00,43.7,21.6,28.38,WSW,248,0.0,0.0,41,0.00,,---,0.00,VWS V14.01,2013-03-23 22:31:00,
2013-03-23 15:37:00,45.3,21.2,28.38,WSW,248,2.5,2.9,38,0.00,,---,0.00,VWS V14.01,2013-03-23 22:37:00,
2013-03-23 15:42:00,47.1,23.5,28.38,WSW,248,1.1,1.3,39,0.00,,---,0.00,VWS V14.01,2013-03-23 22:42:00,
2013-03-23 15:47:00,45.3,21.8,28.38,WSW,248,2.0,2.0,39,0.00,,---,0.00,VWS V14.01,2013-03-23 22:47:00,
2013-03-23 15:52:00,44.2,21.5,28.38,WSW,248,1.1,1.6,40,0.00,,---,0.00,VWS V14.01,2013-03-23 22:52:00,
2013-03-23 15:57:00,43.0,20.3,28.38,WSW,248,0.0,1.1,40,0.00,,---,0.00,VWS V14.01,2013-03-23 22:57:00,
2013-03-23 16:02:00,42.6,20.6,28.38,WSW,248,1.3,1.3,41,0.00,,---,0.00,VWS V14.01,2013-03-23 23:02:00,
2013-03-23 16:07:00,41.5,20.7,28.38,WSW,248,1.3,2.0,43,0.00,,---,0.00,VWS V14.01,2013-03-23 23:07:00,
2013-03-23 16:12:00,41.2,20.9,28.38,WSW,248,0.0,0.0,44,0.00,,---,0.00,VWS V14.01,2013-03-23 23:12:00,
2013-03-23 16:17:00,41.0,20.8,28.41,WSW,248,0.0,0.0,44,0.00,,---,0.00,VWS V14.01,2013-03-23 23:17:00,
2013-03-23 16:22:00,40.8,21.7,28.41,WSW,248,0.0,0.0,46,0.00,,---,0.00,VWS V14.01,2013-03-23 23:22:00,
2013-03-23 16:27:00,40.5,20.8,28.41,WSW,248,0.0,0.0,45,0.00,,---,0.00,VWS V14.01,2013-03-23 23:27:00,
2013-03-23 16:32:00,39.9,21.8,28.38,WSW,248,0.0,0.0,48,0.00,,---,0.00,VWS V14.01,2013-03-23 23:32:00,
2013-03-23 16:37:00,39.2,21.7,28.38,WSW,248,0.0,0.0,49,0.00,,---,0.00,VWS V14.01,2013-03-23 23:37:00,
2013-03-23 16:42:00,38.7,22.6,28.38,WSW,248,2.2,2.2,52,0.00,,---,0.00,VWS V14.01,2013-03-23 23:42:00,
2013-03-23 16:47:00,38.5,21.0,28.38,WSW,248,2.5,2.7,49,0.00,,---,0.00,VWS V14.01,2013-03-23 23:47:00,
2013-03-23 16:52:00,38.3,20.8,28.38,WSW,248,2.7,2.7,49,0.00,,---,0.00,VWS V14.01,2013-03-23 23:52:00,
2013-03-23 16:57:00,37.9,21.0,28.38,WSW,248,1.6,1.6,50,0.00,,---,0.00,VWS V14.01,2013-03-23 23:57:00,
2013-03-23 17:02:00,37.8,20.8,28.38,WSW,248,1.6,1.6,50,0.00,,---,0.00,VWS V14.01,2013-03-24 00:02:00,
2013-03-23 17:07:00,37.4,20.5,28.38,WSW,248,1.3,1.3,50,0.00,,---,0.00,VWS V14.01,2013-03-24 00:07:00,
2013-03-23 17:13:00,37.2,20.8,28.38,WSW,248,0.0,0.0,51,0.00,,---,0.00,VWS V14.01,2013-03-24 00:13:00,
2013-03-23 17:18:00,37.0,20.6,28.38,WSW,248,0.0,0.0,51,0.00,,---,0.00,VWS V14.01,2013-03-24 00:18:00,
2013-03-23 17:23:00,36.9,20.9,28.38,WSW,248,0.0,0.0,52,0.00,,---,0.00,VWS V14.01,2013-03-24 00:23:00,
2013-03-23 17:28:00,36.7,21.6,28.38,WSW,248,0.0,0.0,54,0.00,,---,0.00,VWS V14.01,2013-03-24 00:28:00,
2013-03-23 17:33:00,36.5,20.6,28.38,WSW,248,0.0,0.0,52,0.00,,---,0.00,VWS V14.01,2013-03-24 00:33:00,
2013-03-23 17:38:00,36.3,20.8,28.38,WSW,248,0.0,0.0,53,0.00,,---,0.00,VWS V14.01,2013-03-24 00:38:00,
2013-03-23 17:43:00,36.0,21.0,28.38,WSW,248,0.0,0.0,54,0.00,,---,0.00,VWS V14.01,2013-03-24 00:43:00,
2013-03-23 17:48:00,35.8,20.3,28.38,WSW,248,0.0,0.0,53,0.00,,---,0.00,VWS V14.01,2013-03-24 00:48:00,
2013-03-23 17:53:00,35.4,20.4,28.38,WSW,248,0.0,0.0,54,0.00,,---,0.00,VWS V14.01,2013-03-24 00:53:00,
2013-03-23 17:58:00,35.4,20.4,28.38,WSW,248,0.0,0.0,54,0.00,,---,0.00,VWS V14.01,2013-03-24 00:58:00,
2013-03-23 18:03:00,35.1,21.0,28.38,NNW,338,0.0,1.6,56,0.00,,---,0.00,VWS V14.01,2013-03-24 01:03:00,
2013-03-23 18:08:00,34.9,20.4,28.38,WSW,248,0.0,0.0,55,0.00,,---,0.00,VWS V14.01,2013-03-24 01:08:00,
2013-03-23 18:13:00,34.7,20.6,28.38,WSW,248,0.0,0.0,56,0.00,,---,0.00,VWS V14.01,2013-03-24 01:13:00,
2013-03-23 18:18:00,34.5,21.3,28.38,WSW,248,0.0,0.0,58,0.00,,---,0.00,VWS V14.01,2013-03-24 01:18:00,
2013-03-23 18:23:00,34.3,21.1,28.38,NW,315,0.0,0.0,58,0.00,,---,0.00,VWS V14.01,2013-03-24 01:23:00,
2013-03-23 18:28:00,34.0,20.4,28.38,WNW,292,0.0,0.0,57,0.00,,---,0.00,VWS V14.01,2013-03-24 01:28:00,
2013-03-23 18:33:00,33.8,20.2,28.38,WNW,292,0.0,0.0,57,0.00,,---,0.00,VWS V14.01,2013-03-24 01:33:00,
2013-03-23 18:38:00,33.6,20.0,28.38,WNW,292,0.0,0.0,57,0.00,,---,0.00,VWS V14.01,2013-03-24 01:38:00,
2013-03-23 18:43:00,33.3,20.1,28.38,WNW,292,0.0,0.0,58,0.00,,---,0.00,VWS V14.01,2013-03-24 01:43:00,
2013-03-23 18:48:00,32.9,20.2,28.38,WNW,292,0.0,0.0,59,0.00,,---,0.00,VWS V14.01,2013-03-24 01:48:00,
2013-03-23 18:53:00,32.7,20.0,28.38,WNW,292,0.0,0.0,59,0.00,,---,0.00,VWS V14.01,2013-03-24 01:53:00,
2013-03-23 18:58:00,32.4,20.0,28.38,NW,315,0.0,0.0,60,0.00,,---,0.00,VWS V14.01,2013-03-24 01:58:00,
2013-03-23 19:03:00,31.8,19.9,28.38,NW,315,0.0,0.0,61,0.00,,---,0.00,VWS V14.01,2013-03-24 02:03:00,
2013-03-23 19:08:00,31.6,19.8,28.38,NW,315,0.0,0.0,61,0.00,,---,0.00,VWS V14.01,2013-03-24 02:08:00,
2013-03-23 19:13:00,31.1,19.6,28.38,NW,315,0.0,0.0,62,0.00,,---,0.00,VWS V14.01,2013-03-24 02:13:00,
2013-03-23 19:18:00,30.7,18.9,28.38,NW,315,0.0,0.0,61,0.00,,---,0.00,VWS V14.01,2013-03-24 02:18:00,
2013-03-23 19:23:00,30.4,18.9,28.38,NW,315,0.0,0.0,62,0.00,,---,0.00,VWS V14.01,2013-03-24 02:23:00,
2013-03-23 19:28:00,30.2,19.1,28.38,WNW,292,0.0,0.0,63,0.00,,---,0.00,VWS V14.01,2013-03-24 02:28:00,
2013-03-23 19:33:00,29.8,18.8,28.38,WNW,292,0.0,0.0,63,0.00,,---,0.00,VWS V14.01,2013-03-24 02:33:00,
2013-03-23 19:38:00,29.7,18.6,28.38,North,0,0.0,0.0,63,0.00,,---,0.00,VWS V14.01,2013-03-24 02:38:00,
2013-03-23 19:43:00,29.3,18.6,28.38,North,0,0.0,0.0,64,0.00,,---,0.00,VWS V14.01,2013-03-24 02:43:00,
2013-03-23 19:48:00,29.1,18.5,28.41,North,0,0.0,0.0,64,0.00,,---,0.00,VWS V14.01,2013-03-24 02:48:00,
2013-03-23 19:53:00,28.8,18.5,28.41,North,0,0.0,0.0,65,0.00,,---,0.00,VWS V14.01,2013-03-24 02:53:00,
2013-03-23 19:58:00,28.8,18.5,28.41,North,0,0.0,0.0,65,0.00,,---,0.00,VWS V14.01,2013-03-24 02:58:00,
2013-03-23 20:03:00,28.4,18.5,28.41,North,0,0.0,0.0,66,0.00,,---,0.00,VWS V14.01,2013-03-24 03:03:00,
2013-03-23 20:08:00,28.2,18.0,28.41,North,0,0.0,0.0,65,0.00,,---,0.00,VWS V14.01,2013-03-24 03:08:00,
2013-03-23 20:14:00,28.2,18.0,28.41,North,0,0.0,0.0,65,0.00,,---,0.00,VWS V14.01,2013-03-24 03:14:00,
2013-03-23 20:19:00,27.9,18.0,28.41,North,0,0.0,0.0,66,0.00,,---,0.00,VWS V14.01,2013-03-24 03:19:00,
2013-03-23 20:24:00,27.9,18.0,28.41,North,0,0.0,0.0,66,0.00,,---,0.00,VWS V14.01,2013-03-24 03:24:00,
2013-03-23 20:29:00,27.7,18.2,28.41,North,0,0.0,0.0,67,0.00,,---,0.00,VWS V14.01,2013-03-24 03:29:00,
2013-03-23 20:34:00,27.3,17.8,28.41,North,0,0.0,0.0,67,0.00,,---,0.00,VWS V14.01,2013-03-24 03:34:00,
2013-03-23 20:39:00,27.5,18.0,28.41,North,0,0.0,0.0,67,0.00,,---,0.00,VWS V14.01,2013-03-24 03:39:00,
2013-03-23 20:44:00,27.1,18.0,28.41,North,0,0.0,0.0,68,0.00,,---,0.00,VWS V14.01,2013-03-24 03:44:00,
2013-03-23 20:49:00,27.1,18.0,28.41,North,0,0.0,0.0,68,0.00,,---,0.00,VWS V14.01,2013-03-24 03:49:00,
2013-03-23 20:54:00,27.1,18.3,28.41,North,0,0.0,0.0,69,0.00,,---,0.00,VWS V14.01,2013-03-24 03:54:00,
2013-03-23 20:59:00,27.0,18.2,28.41,NNE,22,0.0,0.0,69,0.00,,---,0.00,VWS V14.01,2013-03-24 03:59:00,
2013-03-23 21:00:00,27.1,18.3,28.41,NNE,22,0.0,0.0,69,0.00,,---,0.00,VWS V14.01,2013-03-24 04:00:00,
2013-03-23 21:05:00,27.1,18.7,28.41,NNW,338,0.0,0.0,70,0.00,,---,0.00,VWS V14.01,2013-03-24 04:05:00,
2013-03-23 21:10:00,27.0,18.5,28.41,NNW,338,0.0,0.0,70,0.00,,---,0.00,VWS V14.01,2013-03-24 04:10:00,
2013-03-23 21:15:00,27.0,18.5,28.41,NNW,338,0.0,0.0,70,0.00,,---,0.00,VWS V14.01,2013-03-24 04:15:00,
2013-03-23 21:20:00,26.8,18.6,28.41,NNW,338,0.0,0.0,71,0.00,,---,0.00,VWS V14.01,2013-03-24 04:20:00,
2013-03-23 21:25:00,26.8,18.6,28.41,NNW,338,0.0,0.0,71,0.00,,---,0.00,VWS V14.01,2013-03-24 04:25:00,
2013-03-23 21:30:00,26.4,18.6,28.41,NNW,338,0.0,0.0,72,0.00,,---,0.00,VWS V14.01,2013-03-24 04:30:00,
2013-03-23 21:35:00,26.6,18.8,28.41,NNW,338,0.0,0.0,72,0.00,,---,0.00,VWS V14.01,2013-03-24 04:35:00,
2013-03-23 21:40:00,26.2,18.8,28.41,NNW,338,0.0,0.0,73,0.00,,---,0.00,VWS V14.01,2013-03-24 04:40:00,
2013-03-23 21:45:00,26.4,19.0,28.41,NNW,338,0.0,0.0,73,0.00,,---,0.00,VWS V14.01,2013-03-24 04:45:00,
2013-03-23 21:50:00,26.4,19.0,28.41,SW,225,0.0,0.0,73,0.00,,---,0.00,VWS V14.01,2013-03-24 04:50:00,
2013-03-23 21:55:00,26.4,19.3,28.41,West,270,0.0,0.0,74,0.00,,---,0.00,VWS V14.01,2013-03-24 04:55:00,
2013-03-23 22:00:00,26.4,19.3,28.44,NNE,22,0.0,0.0,74,0.00,,---,0.00,VWS V14.01,2013-03-24 05:00:00,
2013-03-23 22:05:00,26.4,19.3,28.44,WNW,292,0.0,0.0,74,0.00,,---,0.00,VWS V14.01,2013-03-24 05:05:00,
2013-03-23 22:10:00,26.6,19.8,28.44,NNW,338,0.0,0.0,75,0.00,,---,0.00,VWS V14.01,2013-03-24 05:10:00,
2013-03-23 22:15:00,26.6,19.8,28.44,NNW,338,0.0,0.0,75,0.00,,---,0.00,VWS V14.01,2013-03-24 05:15:00,
2013-03-23 22:20:00,26.4,19.6,28.44,NNW,338,0.0,0.0,75,0.00,,---,0.00,VWS V14.01,2013-03-24 05:20:00,
2013-03-23 22:25:00,26.6,19.8,28.44,WNW,292,0.0,0.0,75,0.00,,---,0.00,VWS V14.01,2013-03-24 05:25:00,
2013-03-23 22:30:00,26.8,19.9,28.41,WSW,248,0.0,0.0,75,0.00,,---,0.00,VWS V14.01,2013-03-24 05:30:00,
2013-03-23 22:35:00,27.0,20.1,28.41,West,270,0.0,0.0,75,0.00,,---,0.00,VWS V14.01,2013-03-24 05:35:00,
2013-03-23 22:41:00,27.0,19.8,28.41,West,270,0.0,0.0,74,0.00,,---,0.00,VWS V14.01,2013-03-24 05:41:00,
2013-03-23 22:46:00,27.0,20.1,28.44,West,270,1.3,2.0,75,0.00,,---,0.00,VWS V14.01,2013-03-24 05:46:00,
2013-03-23 22:51:00,27.1,20.0,28.44,WNW,292,0.0,0.9,74,0.00,,---,0.00,VWS V14.01,2013-03-24 05:51:00,
2013-03-23 22:56:00,27.0,19.8,28.44,ENE,68,2.9,2.9,74,0.00,,---,0.00,VWS V14.01,2013-03-24 05:56:00,
2013-03-23 23:01:00,27.9,20.3,28.44,SW,225,0.0,0.0,73,0.00,,---,0.00,VWS V14.01,2013-03-24 06:01:00,
2013-03-23 23:06:00,27.7,19.9,28.44,NE,45,2.2,2.2,72,0.00,,---,0.00,VWS V14.01,2013-03-24 06:06:00,
2013-03-23 23:11:00,27.9,20.0,28.44,NNE,22,0.0,0.0,72,0.00,,---,0.00,VWS V14.01,2013-03-24 06:11:00,
2013-03-23 23:16:00,28.4,20.2,28.44,ENE,68,2.2,2.2,71,0.00,,---,0.00,VWS V14.01,2013-03-24 06:16:00,
2013-03-23 23:21:00,28.4,19.9,28.44,SSW,202,0.0,0.0,70,0.00,,---,0.00,VWS V14.01,2013-03-24 06:21:00,
2013-03-23 23:26:00,28.2,19.7,28.44,WSW,248,0.0,0.0,70,0.00,,---,0.00,VWS V14.01,2013-03-24 06:26:00,
2013-03-23 23:31:00,28.0,19.5,28.44,WSW,248,1.3,1.3,70,0.00,,---,0.00,VWS V14.01,2013-03-24 06:31:00,
2013-03-23 23:36:00,28.0,19.5,28.44,WSW,248,0.0,0.0,70,0.00,,---,0.00,VWS V14.01,2013-03-24 06:36:00,
2013-03-23 23:42:00,28.0,19.5,28.44,WNW,292,0.9,1.6,70,0.00,,---,0.00,VWS V14.01,2013-03-24 06:42:00,
2013-03-23 23:47:00,27.9,19.0,28.44,SSW,202,0.0,0.9,69,0.00,,---,0.00,VWS V14.01,2013-03-24 06:47:00,
2013-03-23 23:52:00,27.7,19.2,28.44,SSE,158,2.7,2.7,70,0.00,,---,0.00,VWS V14.01,2013-03-24 06:52:00,
2013-03-23 23:57:00,28.0,18.9,28.44,NE,45,3.6,4.7,68,0.00,,---,0.00,VWS V14.01,2013-03-24 06:57:00,